sensor_id;sensor_type;location;lat;lon;timestamp;P1;durP1;ratioP1;P2;durP2;ratioP2
13855;SDS011;6998;53.608;9.958;2023-04-25T00:00:48;9.50;;;4.37;;
13855;SDS011;6998;53.608;9.958;2023-04-25T00:03:15;10.93;;;4.53;;
13855;SDS011;6998;53.608;9.958;2023-04-25T00:05:43;14.00;;;4.85;;
13855;SDS011;6998;53.608;9.958;2023-04-25T00:08:11;8.70;;;4.20;;
13855;SDS011;6998;53.608;9.958;2023-04-25T00:10:38;16.40;;;4.97;;
13855;SDS011;6998;53.608;9.958;2023-04-25T00:13:05;16.40;;;5.40;;
13855;SDS011;6998;53.608;9.958;2023-04-25T00:15:33;15.43;;;5.23;;
13855;SDS011;6998;53.608;9.958;2023-04-25T00:18:02;15.33;;;4.97;;
13855;SDS011;6998;53.608;9.958;2023-04-25T00:20:30;13.27;;;4.93;;
13855;SDS011;6998;53.608;9.958;2023-04-25T00:22:59;19.43;;;5.27;;
13855;SDS011;6998;53.608;9.958;2023-04-25T00:25:28;17.03;;;5.53;;
13855;SDS011;6998;53.608;9.958;2023-04-25T00:27:55;19.53;;;4.83;;
13855;SDS011;6998;53.608;9.958;2023-04-25T00:30:22;11.87;;;4.17;;
13855;SDS011;6998;53.608;9.958;2023-04-25T00:32:49;18.37;;;4.83;;
13855;SDS011;6998;53.608;9.958;2023-04-25T00:35:16;17.73;;;4.90;;
13855;SDS011;6998;53.608;9.958;2023-04-25T00:37:44;16.20;;;4.60;;
13855;SDS011;6998;53.608;9.958;2023-04-25T00:40:12;19.30;;;4.57;;
13855;SDS011;6998;53.608;9.958;2023-04-25T00:42:54;16.70;;;4.70;;
13855;SDS011;6998;53.608;9.958;2023-04-25T00:45:22;16.77;;;4.40;;
13855;SDS011;6998;53.608;9.958;2023-04-25T00:47:58;20.00;;;4.73;;
13855;SDS011;6998;53.608;9.958;2023-04-25T00:50:56;18.73;;;5.10;;
13855;SDS011;6998;53.608;9.958;2023-04-25T00:53:40;20.00;;;5.07;;
13855;SDS011;6998;53.608;9.958;2023-04-25T00:56:19;24.40;;;5.00;;
13855;SDS011;6998;53.608;9.958;2023-04-25T00:58:49;21.10;;;4.20;;
13855;SDS011;6998;53.608;9.958;2023-04-25T01:01:32;20.23;;;4.80;;
13855;SDS011;6998;53.608;9.958;2023-04-25T01:04:04;23.27;;;5.57;;
13855;SDS011;6998;53.608;9.958;2023-04-25T01:06:33;17.17;;;5.53;;
13855;SDS011;6998;53.608;9.958;2023-04-25T01:09:01;24.50;;;4.77;;
13855;SDS011;6998;53.608;9.958;2023-04-25T01:11:34;19.93;;;4.67;;
13855;SDS011;6998;53.608;9.958;2023-04-25T01:17:51;25.63;;;5.40;;
13855;SDS011;6998;53.608;9.958;2023-04-25T01:23:35;19.87;;;5.17;;
13855;SDS011;6998;53.608;9.958;2023-04-25T01:30:20;23.90;;;5.13;;
13855;SDS011;6998;53.608;9.958;2023-04-25T01:32:46;25.13;;;5.23;;
13855;SDS011;6998;53.608;9.958;2023-04-25T01:35:14;16.20;;;5.40;;
13855;SDS011;6998;53.608;9.958;2023-04-25T01:37:41;23.43;;;5.90;;
13855;SDS011;6998;53.608;9.958;2023-04-25T01:40:09;22.13;;;4.90;;
13855;SDS011;6998;53.608;9.958;2023-04-25T01:42:40;16.27;;;5.27;;
13855;SDS011;6998;53.608;9.958;2023-04-25T01:45:09;24.03;;;5.70;;
13855;SDS011;6998;53.608;9.958;2023-04-25T01:47:39;20.40;;;4.90;;
13855;SDS011;6998;53.608;9.958;2023-04-25T01:50:08;18.57;;;5.00;;
13855;SDS011;6998;53.608;9.958;2023-04-25T01:52:36;20.60;;;5.27;;
13855;SDS011;6998;53.608;9.958;2023-04-25T01:55:03;18.83;;;5.30;;
13855;SDS011;6998;53.608;9.958;2023-04-25T01:57:30;21.30;;;5.57;;
13855;SDS011;6998;53.608;9.958;2023-04-25T01:59:58;19.63;;;4.63;;
13855;SDS011;6998;53.608;9.958;2023-04-25T02:02:27;26.13;;;5.23;;
13855;SDS011;6998;53.608;9.958;2023-04-25T02:04:55;21.63;;;4.40;;
13855;SDS011;6998;53.608;9.958;2023-04-25T02:07:22;24.67;;;5.27;;
13855;SDS011;6998;53.608;9.958;2023-04-25T02:09:49;19.93;;;5.03;;
13855;SDS011;6998;53.608;9.958;2023-04-25T02:12:16;16.87;;;4.47;;
13855;SDS011;6998;53.608;9.958;2023-04-25T02:14:42;18.87;;;4.87;;
13855;SDS011;6998;53.608;9.958;2023-04-25T02:17:09;21.77;;;5.40;;
13855;SDS011;6998;53.608;9.958;2023-04-25T02:19:37;20.20;;;5.27;;
13855;SDS011;6998;53.608;9.958;2023-04-25T02:22:05;23.03;;;4.97;;
13855;SDS011;6998;53.608;9.958;2023-04-25T02:24:32;21.23;;;5.63;;
13855;SDS011;6998;53.608;9.958;2023-04-25T02:26:59;21.00;;;5.33;;
13855;SDS011;6998;53.608;9.958;2023-04-25T02:29:26;20.57;;;5.13;;
13855;SDS011;6998;53.608;9.958;2023-04-25T02:31:53;22.27;;;5.03;;
13855;SDS011;6998;53.608;9.958;2023-04-25T02:34:20;15.17;;;4.47;;
13855;SDS011;6998;53.608;9.958;2023-04-25T02:36:47;24.50;;;5.87;;
13855;SDS011;6998;53.608;9.958;2023-04-25T02:39:16;21.63;;;4.83;;
13855;SDS011;6998;53.608;9.958;2023-04-25T02:41:42;20.97;;;5.30;;
13855;SDS011;6998;53.608;9.958;2023-04-25T02:44:09;19.20;;;4.90;;
13855;SDS011;6998;53.608;9.958;2023-04-25T02:46:36;27.47;;;5.80;;
13855;SDS011;6998;53.608;9.958;2023-04-25T02:49:03;20.00;;;4.60;;
13855;SDS011;6998;53.608;9.958;2023-04-25T02:51:30;31.07;;;6.30;;
13855;SDS011;6998;53.608;9.958;2023-04-25T02:53:57;23.57;;;5.27;;
13855;SDS011;6998;53.608;9.958;2023-04-25T02:56:25;22.43;;;4.97;;
13855;SDS011;6998;53.608;9.958;2023-04-25T02:58:52;24.10;;;5.17;;
13855;SDS011;6998;53.608;9.958;2023-04-25T03:01:19;20.33;;;4.90;;
13855;SDS011;6998;53.608;9.958;2023-04-25T03:03:46;21.83;;;5.30;;
13855;SDS011;6998;53.608;9.958;2023-04-25T03:06:12;19.83;;;5.03;;
13855;SDS011;6998;53.608;9.958;2023-04-25T03:08:39;24.10;;;5.37;;
13855;SDS011;6998;53.608;9.958;2023-04-25T03:11:06;24.33;;;5.53;;
13855;SDS011;6998;53.608;9.958;2023-04-25T03:13:34;21.53;;;4.83;;
13855;SDS011;6998;53.608;9.958;2023-04-25T03:16:01;12.37;;;3.60;;
13855;SDS011;6998;53.608;9.958;2023-04-25T03:18:27;17.57;;;4.17;;
13855;SDS011;6998;53.608;9.958;2023-04-25T03:20:54;19.57;;;4.70;;
13855;SDS011;6998;53.608;9.958;2023-04-25T03:23:21;17.30;;;4.53;;
13855;SDS011;6998;53.608;9.958;2023-04-25T03:25:48;22.67;;;5.40;;
13855;SDS011;6998;53.608;9.958;2023-04-25T03:28:14;21.23;;;4.77;;
13855;SDS011;6998;53.608;9.958;2023-04-25T03:30:43;22.30;;;5.27;;
13855;SDS011;6998;53.608;9.958;2023-04-25T03:33:09;18.33;;;4.60;;
13855;SDS011;6998;53.608;9.958;2023-04-25T03:35:36;19.53;;;3.73;;
13855;SDS011;6998;53.608;9.958;2023-04-25T03:38:03;13.13;;;4.00;;
13855;SDS011;6998;53.608;9.958;2023-04-25T03:40:29;18.97;;;4.17;;
13855;SDS011;6998;53.608;9.958;2023-04-25T03:42:56;19.17;;;4.00;;
13855;SDS011;6998;53.608;9.958;2023-04-25T03:45:23;14.47;;;3.77;;
13855;SDS011;6998;53.608;9.958;2023-04-25T03:47:51;18.90;;;4.53;;
13855;SDS011;6998;53.608;9.958;2023-04-25T03:50:18;12.50;;;4.03;;
13855;SDS011;6998;53.608;9.958;2023-04-25T03:52:45;19.60;;;4.23;;
13855;SDS011;6998;53.608;9.958;2023-04-25T03:55:12;16.93;;;4.43;;
13855;SDS011;6998;53.608;9.958;2023-04-25T03:57:38;18.03;;;4.07;;
13855;SDS011;6998;53.608;9.958;2023-04-25T04:00:07;20.27;;;4.90;;
13855;SDS011;6998;53.608;9.958;2023-04-25T04:02:34;20.17;;;5.23;;
13855;SDS011;6998;53.608;9.958;2023-04-25T04:05:05;21.43;;;4.40;;
13855;SDS011;6998;53.608;9.958;2023-04-25T04:07:32;15.80;;;3.90;;
13855;SDS011;6998;53.608;9.958;2023-04-25T04:10:04;15.33;;;3.77;;
13855;SDS011;6998;53.608;9.958;2023-04-25T04:12:32;16.40;;;4.37;;
13855;SDS011;6998;53.608;9.958;2023-04-25T04:15:01;13.63;;;3.70;;
13855;SDS011;6998;53.608;9.958;2023-04-25T04:17:28;14.73;;;4.07;;
13855;SDS011;6998;53.608;9.958;2023-04-25T04:19:55;19.60;;;4.47;;
13855;SDS011;6998;53.608;9.958;2023-04-25T04:22:24;20.77;;;4.90;;
13855;SDS011;6998;53.608;9.958;2023-04-25T04:24:51;21.33;;;4.57;;
13855;SDS011;6998;53.608;9.958;2023-04-25T04:27:19;14.50;;;4.40;;
13855;SDS011;6998;53.608;9.958;2023-04-25T04:29:46;19.70;;;4.33;;
13855;SDS011;6998;53.608;9.958;2023-04-25T04:32:13;15.27;;;4.20;;
13855;SDS011;6998;53.608;9.958;2023-04-25T04:34:40;16.73;;;4.63;;
13855;SDS011;6998;53.608;9.958;2023-04-25T04:37:07;14.40;;;3.73;;
13855;SDS011;6998;53.608;9.958;2023-04-25T04:39:36;14.77;;;3.90;;
13855;SDS011;6998;53.608;9.958;2023-04-25T04:42:03;17.57;;;4.40;;
13855;SDS011;6998;53.608;9.958;2023-04-25T04:44:30;17.67;;;4.30;;
13855;SDS011;6998;53.608;9.958;2023-04-25T04:47:00;17.27;;;4.33;;
13855;SDS011;6998;53.608;9.958;2023-04-25T04:49:28;16.47;;;4.30;;
13855;SDS011;6998;53.608;9.958;2023-04-25T04:51:55;15.53;;;3.97;;
13855;SDS011;6998;53.608;9.958;2023-04-25T04:54:22;14.80;;;3.60;;
13855;SDS011;6998;53.608;9.958;2023-04-25T04:56:50;16.33;;;3.77;;
13855;SDS011;6998;53.608;9.958;2023-04-25T04:59:17;14.70;;;3.83;;
13855;SDS011;6998;53.608;9.958;2023-04-25T05:01:44;14.37;;;4.20;;
13855;SDS011;6998;53.608;9.958;2023-04-25T05:04:11;13.40;;;3.97;;
13855;SDS011;6998;53.608;9.958;2023-04-25T05:06:38;19.03;;;3.97;;
13855;SDS011;6998;53.608;9.958;2023-04-25T05:09:05;12.43;;;3.77;;
13855;SDS011;6998;53.608;9.958;2023-04-25T05:11:32;13.80;;;3.77;;
13855;SDS011;6998;53.608;9.958;2023-04-25T05:14:00;17.70;;;4.10;;
13855;SDS011;6998;53.608;9.958;2023-04-25T05:16:27;14.33;;;3.57;;
13855;SDS011;6998;53.608;9.958;2023-04-25T05:18:54;19.67;;;3.77;;
13855;SDS011;6998;53.608;9.958;2023-04-25T05:21:21;14.57;;;3.67;;
13855;SDS011;6998;53.608;9.958;2023-04-25T05:23:47;13.20;;;3.47;;
13855;SDS011;6998;53.608;9.958;2023-04-25T05:26:14;11.53;;;3.30;;
13855;SDS011;6998;53.608;9.958;2023-04-25T05:28:41;12.53;;;3.60;;
13855;SDS011;6998;53.608;9.958;2023-04-25T05:31:10;14.73;;;4.00;;
13855;SDS011;6998;53.608;9.958;2023-04-25T05:33:36;15.37;;;3.50;;
13855;SDS011;6998;53.608;9.958;2023-04-25T05:36:04;14.80;;;3.80;;
13855;SDS011;6998;53.608;9.958;2023-04-25T05:38:31;14.33;;;3.90;;
13855;SDS011;6998;53.608;9.958;2023-04-25T05:40:58;16.63;;;3.87;;
13855;SDS011;6998;53.608;9.958;2023-04-25T05:43:24;11.27;;;3.37;;
13855;SDS011;6998;53.608;9.958;2023-04-25T05:45:51;13.07;;;3.40;;
13855;SDS011;6998;53.608;9.958;2023-04-25T05:48:19;13.67;;;3.63;;
13855;SDS011;6998;53.608;9.958;2023-04-25T05:50:46;13.20;;;3.70;;
13855;SDS011;6998;53.608;9.958;2023-04-25T05:53:13;14.47;;;3.77;;
13855;SDS011;6998;53.608;9.958;2023-04-25T05:55:39;10.60;;;3.50;;
13855;SDS011;6998;53.608;9.958;2023-04-25T05:58:06;15.10;;;3.70;;
13855;SDS011;6998;53.608;9.958;2023-04-25T06:00:33;17.97;;;4.20;;
13855;SDS011;6998;53.608;9.958;2023-04-25T06:03:00;17.10;;;3.87;;
13855;SDS011;6998;53.608;9.958;2023-04-25T06:05:28;16.93;;;3.77;;
13855;SDS011;6998;53.608;9.958;2023-04-25T06:07:55;15.43;;;3.83;;
13855;SDS011;6998;53.608;9.958;2023-04-25T06:10:22;18.00;;;3.77;;
13855;SDS011;6998;53.608;9.958;2023-04-25T06:12:49;12.20;;;3.77;;
13855;SDS011;6998;53.608;9.958;2023-04-25T06:15:15;15.13;;;3.47;;
13855;SDS011;6998;53.608;9.958;2023-04-25T06:17:42;13.10;;;3.63;;
13855;SDS011;6998;53.608;9.958;2023-04-25T06:20:09;12.90;;;3.83;;
13855;SDS011;6998;53.608;9.958;2023-04-25T06:22:38;14.33;;;3.33;;
13855;SDS011;6998;53.608;9.958;2023-04-25T06:25:07;15.13;;;3.77;;
13855;SDS011;6998;53.608;9.958;2023-04-25T06:27:34;15.77;;;3.80;;
13855;SDS011;6998;53.608;9.958;2023-04-25T06:30:01;17.23;;;3.83;;
13855;SDS011;6998;53.608;9.958;2023-04-25T06:32:27;14.77;;;4.03;;
13855;SDS011;6998;53.608;9.958;2023-04-25T06:34:55;13.67;;;3.50;;
13855;SDS011;6998;53.608;9.958;2023-04-25T06:37:23;12.93;;;3.40;;
13855;SDS011;6998;53.608;9.958;2023-04-25T06:39:51;14.07;;;3.83;;
13855;SDS011;6998;53.608;9.958;2023-04-25T06:42:18;17.47;;;4.43;;
13855;SDS011;6998;53.608;9.958;2023-04-25T06:44:45;19.03;;;4.00;;
13855;SDS011;6998;53.608;9.958;2023-04-25T06:47:11;13.87;;;3.40;;
13855;SDS011;6998;53.608;9.958;2023-04-25T06:49:38;11.90;;;3.67;;
13855;SDS011;6998;53.608;9.958;2023-04-25T06:52:05;14.67;;;3.20;;
13855;SDS011;6998;53.608;9.958;2023-04-25T06:54:32;10.80;;;3.37;;
13855;SDS011;6998;53.608;9.958;2023-04-25T06:57:00;10.87;;;3.30;;
13855;SDS011;6998;53.608;9.958;2023-04-25T06:59:29;13.60;;;3.13;;
13855;SDS011;6998;53.608;9.958;2023-04-25T07:01:56;10.33;;;3.10;;
13855;SDS011;6998;53.608;9.958;2023-04-25T07:04:22;11.50;;;2.87;;
13855;SDS011;6998;53.608;9.958;2023-04-25T07:06:49;13.00;;;3.33;;
13855;SDS011;6998;53.608;9.958;2023-04-25T07:09:16;10.43;;;3.40;;
13855;SDS011;6998;53.608;9.958;2023-04-25T07:11:43;16.60;;;2.97;;
13855;SDS011;6998;53.608;9.958;2023-04-25T07:14:11;10.70;;;2.97;;
13855;SDS011;6998;53.608;9.958;2023-04-25T07:16:38;11.90;;;2.83;;
13855;SDS011;6998;53.608;9.958;2023-04-25T07:19:04;13.30;;;3.10;;
13855;SDS011;6998;53.608;9.958;2023-04-25T07:21:31;10.30;;;3.07;;
13855;SDS011;6998;53.608;9.958;2023-04-25T07:23:59;15.17;;;3.50;;
13855;SDS011;6998;53.608;9.958;2023-04-25T07:26:25;11.77;;;3.17;;
13855;SDS011;6998;53.608;9.958;2023-04-25T07:28:52;8.00;;;2.37;;
13855;SDS011;6998;53.608;9.958;2023-04-25T07:31:21;11.40;;;3.00;;
13855;SDS011;6998;53.608;9.958;2023-04-25T07:33:48;13.27;;;3.20;;
13855;SDS011;6998;53.608;9.958;2023-04-25T07:36:15;12.23;;;2.93;;
13855;SDS011;6998;53.608;9.958;2023-04-25T07:38:42;13.30;;;3.33;;
13855;SDS011;6998;53.608;9.958;2023-04-25T07:41:08;11.53;;;2.83;;
13855;SDS011;6998;53.608;9.958;2023-04-25T07:43:35;11.50;;;2.80;;
13855;SDS011;6998;53.608;9.958;2023-04-25T07:46:02;9.23;;;2.40;;
13855;SDS011;6998;53.608;9.958;2023-04-25T07:48:30;11.57;;;2.67;;
13855;SDS011;6998;53.608;9.958;2023-04-25T07:50:57;8.87;;;2.60;;
13855;SDS011;6998;53.608;9.958;2023-04-25T07:53:24;14.13;;;3.17;;
13855;SDS011;6998;53.608;9.958;2023-04-25T07:55:50;9.77;;;2.60;;
13855;SDS011;6998;53.608;9.958;2023-04-25T07:58:17;15.20;;;3.13;;
13855;SDS011;6998;53.608;9.958;2023-04-25T08:00:46;14.00;;;2.40;;
13855;SDS011;6998;53.608;9.958;2023-04-25T08:03:13;13.23;;;2.73;;
13855;SDS011;6998;53.608;9.958;2023-04-25T08:05:41;10.70;;;2.80;;
13855;SDS011;6998;53.608;9.958;2023-04-25T08:08:08;10.43;;;2.77;;
13855;SDS011;6998;53.608;9.958;2023-04-25T08:10:35;10.53;;;2.40;;
13855;SDS011;6998;53.608;9.958;2023-04-25T08:13:02;11.77;;;2.47;;
13855;SDS011;6998;53.608;9.958;2023-04-25T08:15:28;14.37;;;2.43;;
13855;SDS011;6998;53.608;9.958;2023-04-25T08:17:55;13.23;;;3.23;;
13855;SDS011;6998;53.608;9.958;2023-04-25T08:20:22;15.20;;;2.87;;
13855;SDS011;6998;53.608;9.958;2023-04-25T08:22:51;11.13;;;2.90;;
13855;SDS011;6998;53.608;9.958;2023-04-25T08:25:18;11.10;;;2.90;;
13855;SDS011;6998;53.608;9.958;2023-04-25T08:27:45;8.60;;;2.33;;
13855;SDS011;6998;53.608;9.958;2023-04-25T08:30:12;9.53;;;2.50;;
13855;SDS011;6998;53.608;9.958;2023-04-25T08:32:39;8.70;;;2.33;;
13855;SDS011;6998;53.608;9.958;2023-04-25T08:35:06;10.10;;;2.83;;
13855;SDS011;6998;53.608;9.958;2023-04-25T08:37:33;11.23;;;2.80;;
13855;SDS011;6998;53.608;9.958;2023-04-25T08:40:03;12.20;;;2.70;;
13855;SDS011;6998;53.608;9.958;2023-04-25T08:42:32;12.60;;;2.50;;
13855;SDS011;6998;53.608;9.958;2023-04-25T08:45:00;12.43;;;2.83;;
13855;SDS011;6998;53.608;9.958;2023-04-25T08:47:28;17.63;;;3.20;;
13855;SDS011;6998;53.608;9.958;2023-04-25T08:49:59;13.97;;;2.77;;
13855;SDS011;6998;53.608;9.958;2023-04-25T08:52:28;13.40;;;2.80;;
13855;SDS011;6998;53.608;9.958;2023-04-25T08:55:00;7.13;;;2.50;;
13855;SDS011;6998;53.608;9.958;2023-04-25T08:57:30;12.63;;;3.03;;
13855;SDS011;6998;53.608;9.958;2023-04-25T08:59:58;12.40;;;2.67;;
13855;SDS011;6998;53.608;9.958;2023-04-25T09:02:27;12.47;;;2.73;;
13855;SDS011;6998;53.608;9.958;2023-04-25T09:04:55;11.43;;;2.50;;
13855;SDS011;6998;53.608;9.958;2023-04-25T09:07:22;17.23;;;3.00;;
13855;SDS011;6998;53.608;9.958;2023-04-25T09:09:50;8.30;;;2.27;;
13855;SDS011;6998;53.608;9.958;2023-04-25T09:12:19;9.27;;;2.47;;
13855;SDS011;6998;53.608;9.958;2023-04-25T09:15:00;8.73;;;1.93;;
13855;SDS011;6998;53.608;9.958;2023-04-25T09:17:32;5.43;;;2.03;;
13855;SDS011;6998;53.608;9.958;2023-04-25T09:20:06;6.50;;;2.10;;
13855;SDS011;6998;53.608;9.958;2023-04-25T09:22:34;6.73;;;2.30;;
13855;SDS011;6998;53.608;9.958;2023-04-25T09:25:02;5.43;;;1.80;;
13855;SDS011;6998;53.608;9.958;2023-04-25T09:27:33;7.93;;;2.47;;
13855;SDS011;6998;53.608;9.958;2023-04-25T09:29:59;7.17;;;2.30;;
13855;SDS011;6998;53.608;9.958;2023-04-25T09:32:26;8.90;;;2.30;;
13855;SDS011;6998;53.608;9.958;2023-04-25T09:34:54;11.93;;;2.60;;
13855;SDS011;6998;53.608;9.958;2023-04-25T09:37:22;8.47;;;2.47;;
13855;SDS011;6998;53.608;9.958;2023-04-25T09:39:52;10.70;;;2.63;;
13855;SDS011;6998;53.608;9.958;2023-04-25T09:42:21;7.70;;;1.97;;
13855;SDS011;6998;53.608;9.958;2023-04-25T09:44:51;8.40;;;2.10;;
13855;SDS011;6998;53.608;9.958;2023-04-25T09:47:19;9.67;;;2.10;;
13855;SDS011;6998;53.608;9.958;2023-04-25T09:49:48;10.13;;;2.73;;
13855;SDS011;6998;53.608;9.958;2023-04-25T09:52:16;12.67;;;2.60;;
13855;SDS011;6998;53.608;9.958;2023-04-25T09:54:45;10.43;;;2.70;;
13855;SDS011;6998;53.608;9.958;2023-04-25T09:57:13;10.63;;;2.50;;
13855;SDS011;6998;53.608;9.958;2023-04-25T09:59:44;8.83;;;2.30;;
13855;SDS011;6998;53.608;9.958;2023-04-25T10:02:14;12.60;;;2.27;;
13855;SDS011;6998;53.608;9.958;2023-04-25T10:04:44;10.53;;;2.77;;
13855;SDS011;6998;53.608;9.958;2023-04-25T10:07:14;10.53;;;2.47;;
13855;SDS011;6998;53.608;9.958;2023-04-25T10:09:41;8.83;;;2.20;;
13855;SDS011;6998;53.608;9.958;2023-04-25T10:12:10;7.30;;;2.07;;
13855;SDS011;6998;53.608;9.958;2023-04-25T10:14:37;8.33;;;2.17;;
13855;SDS011;6998;53.608;9.958;2023-04-25T10:17:05;7.63;;;1.97;;
13855;SDS011;6998;53.608;9.958;2023-04-25T10:19:35;7.47;;;1.93;;
13855;SDS011;6998;53.608;9.958;2023-04-25T10:22:03;8.33;;;1.87;;
13855;SDS011;6998;53.608;9.958;2023-04-25T10:24:34;7.13;;;2.10;;
13855;SDS011;6998;53.608;9.958;2023-04-25T10:27:02;7.60;;;1.93;;
13855;SDS011;6998;53.608;9.958;2023-04-25T10:29:29;11.40;;;2.47;;
13855;SDS011;6998;53.608;9.958;2023-04-25T10:31:56;9.00;;;2.33;;
13855;SDS011;6998;53.608;9.958;2023-04-25T10:34:24;7.30;;;2.20;;
13855;SDS011;6998;53.608;9.958;2023-04-25T10:37:05;8.53;;;2.20;;
13855;SDS011;6998;53.608;9.958;2023-04-25T10:39:34;8.15;;;1.92;;
13855;SDS011;6998;53.608;9.958;2023-04-25T10:42:01;8.75;;;2.20;;
13855;SDS011;6998;53.608;9.958;2023-04-25T10:44:29;8.30;;;2.10;;
13855;SDS011;6998;53.608;9.958;2023-04-25T10:46:56;6.07;;;2.13;;
13855;SDS011;6998;53.608;9.958;2023-04-25T10:49:31;10.15;;;2.10;;
13855;SDS011;6998;53.608;9.958;2023-04-25T10:52:13;7.03;;;1.90;;
13855;SDS011;6998;53.608;9.958;2023-04-25T10:54:47;7.85;;;2.25;;
13855;SDS011;6998;53.608;9.958;2023-04-25T10:57:28;5.88;;;1.98;;
13855;SDS011;6998;53.608;9.958;2023-04-25T11:02:42;8.07;;;2.03;;
13855;SDS011;6998;53.608;9.958;2023-04-25T11:05:15;7.10;;;2.00;;
13855;SDS011;6998;53.608;9.958;2023-04-25T11:07:49;7.97;;;2.35;;
13855;SDS011;6998;53.608;9.958;2023-04-25T11:10:17;11.00;;;2.17;;
13855;SDS011;6998;53.608;9.958;2023-04-25T11:12:45;6.85;;;1.73;;
13855;SDS011;6998;53.608;9.958;2023-04-25T11:15:12;9.52;;;2.20;;
13855;SDS011;6998;53.608;9.958;2023-04-25T11:17:39;8.00;;;1.95;;
13855;SDS011;6998;53.608;9.958;2023-04-25T11:20:06;6.10;;;2.13;;
13855;SDS011;6998;53.608;9.958;2023-04-25T11:22:37;10.65;;;2.25;;
13855;SDS011;6998;53.608;9.958;2023-04-25T11:25:09;8.77;;;2.03;;
13855;SDS011;6998;53.608;9.958;2023-04-25T11:27:37;4.75;;;1.67;;
13855;SDS011;6998;53.608;9.958;2023-04-25T11:30:15;8.00;;;1.75;;
13855;SDS011;6998;53.608;9.958;2023-04-25T11:32:42;6.47;;;1.93;;
13855;SDS011;6998;53.608;9.958;2023-04-25T11:35:10;8.97;;;2.17;;
13855;SDS011;6998;53.608;9.958;2023-04-25T11:37:38;7.90;;;1.80;;
13855;SDS011;6998;53.608;9.958;2023-04-25T11:40:05;9.20;;;2.00;;
13855;SDS011;6998;53.608;9.958;2023-04-25T11:42:36;8.07;;;2.10;;
13855;SDS011;6998;53.608;9.958;2023-04-25T11:45:04;5.70;;;1.92;;
13855;SDS011;6998;53.608;9.958;2023-04-25T11:47:33;4.80;;;1.50;;
13855;SDS011;6998;53.608;9.958;2023-04-25T11:50:00;7.60;;;1.95;;
13855;SDS011;6998;53.608;9.958;2023-04-25T11:52:37;6.03;;;1.80;;
13855;SDS011;6998;53.608;9.958;2023-04-25T11:55:06;3.83;;;1.58;;
13855;SDS011;6998;53.608;9.958;2023-04-25T11:57:35;5.28;;;1.67;;
13855;SDS011;6998;53.608;9.958;2023-04-25T12:00:10;5.70;;;1.73;;
13855;SDS011;6998;53.608;9.958;2023-04-25T12:02:40;3.90;;;1.42;;
13855;SDS011;6998;53.608;9.958;2023-04-25T12:05:08;4.70;;;1.63;;
13855;SDS011;6998;53.608;9.958;2023-04-25T12:07:35;3.90;;;1.20;;
13855;SDS011;6998;53.608;9.958;2023-04-25T12:10:06;3.50;;;1.23;;
13855;SDS011;6998;53.608;9.958;2023-04-25T12:12:36;5.25;;;1.38;;
13855;SDS011;6998;53.608;9.958;2023-04-25T12:15:10;5.72;;;1.50;;
13855;SDS011;6998;53.608;9.958;2023-04-25T12:17:40;6.22;;;1.63;;
13855;SDS011;6998;53.608;9.958;2023-04-25T12:20:09;7.75;;;1.58;;
13855;SDS011;6998;53.608;9.958;2023-04-25T12:22:36;3.45;;;1.52;;
13855;SDS011;6998;53.608;9.958;2023-04-25T12:25:04;7.20;;;1.88;;
13855;SDS011;6998;53.608;9.958;2023-04-25T12:27:35;5.18;;;1.40;;
13855;SDS011;6998;53.608;9.958;2023-04-25T12:30:02;4.13;;;1.48;;
13855;SDS011;6998;53.608;9.958;2023-04-25T12:32:30;5.28;;;1.40;;
13855;SDS011;6998;53.608;9.958;2023-04-25T12:34:57;8.23;;;1.98;;
13855;SDS011;6998;53.608;9.958;2023-04-25T12:37:23;7.57;;;1.73;;
13855;SDS011;6998;53.608;9.958;2023-04-25T12:39:50;7.50;;;1.65;;
13855;SDS011;6998;53.608;9.958;2023-04-25T12:42:17;6.38;;;2.03;;
13855;SDS011;6998;53.608;9.958;2023-04-25T12:44:45;5.32;;;1.80;;
13855;SDS011;6998;53.608;9.958;2023-04-25T12:47:12;5.13;;;1.95;;
13855;SDS011;6998;53.608;9.958;2023-04-25T12:49:39;10.40;;;1.98;;
13855;SDS011;6998;53.608;9.958;2023-04-25T12:52:06;5.18;;;1.70;;
13855;SDS011;6998;53.608;9.958;2023-04-25T12:54:33;4.43;;;1.50;;
13855;SDS011;6998;53.608;9.958;2023-04-25T12:57:00;8.15;;;1.95;;
13855;SDS011;6998;53.608;9.958;2023-04-25T12:59:27;8.90;;;1.90;;
13855;SDS011;6998;53.608;9.958;2023-04-25T13:01:56;9.95;;;2.15;;
13855;SDS011;6998;53.608;9.958;2023-04-25T13:04:22;7.30;;;2.10;;
13855;SDS011;6998;53.608;9.958;2023-04-25T13:06:49;6.70;;;1.98;;
13855;SDS011;6998;53.608;9.958;2023-04-25T13:09:16;7.45;;;1.55;;
13855;SDS011;6998;53.608;9.958;2023-04-25T13:11:43;6.40;;;2.03;;
13855;SDS011;6998;53.608;9.958;2023-04-25T13:14:10;7.82;;;1.40;;
13855;SDS011;6998;53.608;9.958;2023-04-25T13:16:37;6.10;;;1.90;;
13855;SDS011;6998;53.608;9.958;2023-04-25T13:19:05;7.28;;;1.95;;
13855;SDS011;6998;53.608;9.958;2023-04-25T13:21:35;5.70;;;2.20;;
13855;SDS011;6998;53.608;9.958;2023-04-25T13:24:02;6.10;;;1.85;;
13855;SDS011;6998;53.608;9.958;2023-04-25T13:26:30;6.87;;;2.27;;
13855;SDS011;6998;53.608;9.958;2023-04-25T13:28:57;4.10;;;1.70;;
13855;SDS011;6998;53.608;9.958;2023-04-25T13:31:25;4.83;;;1.80;;
13855;SDS011;6998;53.608;9.958;2023-04-25T13:33:52;8.25;;;2.55;;
13855;SDS011;6998;53.608;9.958;2023-04-25T13:36:20;10.20;;;2.33;;
13855;SDS011;6998;53.608;9.958;2023-04-25T13:38:46;9.35;;;2.40;;
13855;SDS011;6998;53.608;9.958;2023-04-25T13:41:14;9.43;;;2.38;;
13855;SDS011;6998;53.608;9.958;2023-04-25T13:43:43;8.15;;;2.58;;
13855;SDS011;6998;53.608;9.958;2023-04-25T13:46:12;8.85;;;2.65;;
13855;SDS011;6998;53.608;9.958;2023-04-25T13:48:40;6.50;;;2.17;;
13855;SDS011;6998;53.608;9.958;2023-04-25T13:51:11;11.67;;;2.67;;
13855;SDS011;6998;53.608;9.958;2023-04-25T13:53:41;6.20;;;1.87;;
13855;SDS011;6998;53.608;9.958;2023-04-25T13:56:08;4.77;;;2.07;;
13855;SDS011;6998;53.608;9.958;2023-04-25T13:58:35;5.10;;;1.90;;
13855;SDS011;6998;53.608;9.958;2023-04-25T14:01:02;4.23;;;1.53;;
13855;SDS011;6998;53.608;9.958;2023-04-25T14:03:30;5.53;;;1.80;;
13855;SDS011;6998;53.608;9.958;2023-04-25T14:05:57;6.80;;;1.70;;
13855;SDS011;6998;53.608;9.958;2023-04-25T14:08:23;6.87;;;1.57;;
13855;SDS011;6998;53.608;9.958;2023-04-25T14:10:52;6.63;;;2.13;;
13855;SDS011;6998;53.608;9.958;2023-04-25T14:13:19;7.15;;;2.15;;
13855;SDS011;6998;53.608;9.958;2023-04-25T14:15:45;6.07;;;2.17;;
13855;SDS011;6998;53.608;9.958;2023-04-25T14:18:12;8.88;;;2.10;;
13855;SDS011;6998;53.608;9.958;2023-04-25T14:20:41;7.28;;;1.92;;
13855;SDS011;6998;53.608;9.958;2023-04-25T14:23:08;7.47;;;2.13;;
13855;SDS011;6998;53.608;9.958;2023-04-25T14:25:34;9.13;;;2.00;;
13855;SDS011;6998;53.608;9.958;2023-04-25T14:28:06;5.28;;;2.08;;
13855;SDS011;6998;53.608;9.958;2023-04-25T14:30:33;4.97;;;1.93;;
13855;SDS011;6998;53.608;9.958;2023-04-25T14:33:00;7.15;;;1.70;;
13855;SDS011;6998;53.608;9.958;2023-04-25T14:35:26;5.50;;;1.77;;
13855;SDS011;6998;53.608;9.958;2023-04-25T14:37:53;6.00;;;1.52;;
13855;SDS011;6998;53.608;9.958;2023-04-25T14:40:20;7.95;;;1.70;;
13855;SDS011;6998;53.608;9.958;2023-04-25T14:42:48;5.18;;;1.73;;
13855;SDS011;6998;53.608;9.958;2023-04-25T14:45:16;6.15;;;1.70;;
13855;SDS011;6998;53.608;9.958;2023-04-25T14:47:43;4.60;;;1.55;;
13855;SDS011;6998;53.608;9.958;2023-04-25T14:50:10;9.15;;;2.00;;
13855;SDS011;6998;53.608;9.958;2023-04-25T14:52:37;4.32;;;1.40;;
13855;SDS011;6998;53.608;9.958;2023-04-25T14:55:04;5.45;;;1.60;;
13855;SDS011;6998;53.608;9.958;2023-04-25T14:57:32;5.07;;;1.60;;
13855;SDS011;6998;53.608;9.958;2023-04-25T14:59:59;6.65;;;1.80;;
13855;SDS011;6998;53.608;9.958;2023-04-25T15:02:28;9.27;;;2.30;;
13855;SDS011;6998;53.608;9.958;2023-04-25T15:04:56;8.63;;;2.17;;
13855;SDS011;6998;53.608;9.958;2023-04-25T15:07:22;10.33;;;2.57;;
13855;SDS011;6998;53.608;9.958;2023-04-25T15:09:49;8.17;;;1.90;;
13855;SDS011;6998;53.608;9.958;2023-04-25T15:12:18;9.53;;;2.07;;